sensor_id;sensor_type;location;lat;lon;timestamp;P1;durP1;ratioP1;P2;durP2;ratioP2
59189;SDS011;50749;51.636;4.948;2023-02-26T00:00:16;3.83;;;1.60;;
59189;SDS011;50749;51.636;4.948;2023-02-26T00:03:05;2.65;;;1.10;;
59189;SDS011;50749;51.636;4.948;2023-02-26T00:05:31;3.15;;;1.20;;
59189;SDS011;50749;51.636;4.948;2023-02-26T00:07:57;2.58;;;0.90;;
59189;SDS011;50749;51.636;4.948;2023-02-26T00:10:23;2.05;;;1.00;;
59189;SDS011;50749;51.636;4.948;2023-02-26T00:12:48;2.60;;;1.10;;
59189;SDS011;50749;51.636;4.948;2023-02-26T00:15:15;1.30;;;0.80;;
59189;SDS011;50749;51.636;4.948;2023-02-26T00:20:26;2.15;;;1.10;;
59189;SDS011;50749;51.636;4.948;2023-02-26T00:22:52;3.67;;;1.23;;
59189;SDS011;50749;51.636;4.948;2023-02-26T00:25:18;3.80;;;1.10;;
59189;SDS011;50749;51.636;4.948;2023-02-26T00:27:44;2.65;;;1.08;;
59189;SDS011;50749;51.636;4.948;2023-02-26T00:30:10;1.95;;;1.08;;
59189;SDS011;50749;51.636;4.948;2023-02-26T00:32:37;2.38;;;1.38;;
59189;SDS011;50749;51.636;4.948;2023-02-26T00:35:07;3.75;;;1.15;;
59189;SDS011;50749;51.636;4.948;2023-02-26T00:40:21;3.65;;;1.20;;
59189;SDS011;50749;51.636;4.948;2023-02-26T00:43:01;2.67;;;0.90;;
59189;SDS011;50749;51.636;4.948;2023-02-26T00:45:28;2.75;;;0.90;;
59189;SDS011;50749;51.636;4.948;2023-02-26T00:47:58;3.85;;;1.42;;
59189;SDS011;50749;51.636;4.948;2023-02-26T00:50:43;4.05;;;0.93;;
59189;SDS011;50749;51.636;4.948;2023-02-26T00:53:21;3.85;;;1.00;;
59189;SDS011;50749;51.636;4.948;2023-02-26T00:55:53;2.45;;;1.20;;
59189;SDS011;50749;51.636;4.948;2023-02-26T00:58:19;2.40;;;0.90;;
59189;SDS011;50749;51.636;4.948;2023-02-26T01:00:45;2.35;;;1.00;;
59189;SDS011;50749;51.636;4.948;2023-02-26T01:03:10;2.97;;;1.17;;
59189;SDS011;50749;51.636;4.948;2023-02-26T01:05:37;2.60;;;1.10;;
59189;SDS011;50749;51.636;4.948;2023-02-26T01:10:37;3.33;;;1.05;;
59189;SDS011;50749;51.636;4.948;2023-02-26T01:13:04;1.85;;;1.00;;
59189;SDS011;50749;51.636;4.948;2023-02-26T01:15:31;2.30;;;1.00;;
59189;SDS011;50749;51.636;4.948;2023-02-26T01:20:45;3.13;;;1.33;;
59189;SDS011;50749;51.636;4.948;2023-02-26T01:23:15;3.53;;;0.90;;
59189;SDS011;50749;51.636;4.948;2023-02-26T01:26:00;2.70;;;0.90;;
59189;SDS011;50749;51.636;4.948;2023-02-26T01:28:41;1.73;;;0.93;;
59189;SDS011;50749;51.636;4.948;2023-02-26T01:31:10;2.10;;;0.85;;
59189;SDS011;50749;51.636;4.948;2023-02-26T01:33:48;4.00;;;1.08;;
59189;SDS011;50749;51.636;4.948;2023-02-26T01:36:21;2.00;;;1.23;;
59189;SDS011;50749;51.636;4.948;2023-02-26T01:39:59;2.22;;;0.80;;
59189;SDS011;50749;51.636;4.948;2023-02-26T01:42:14;3.30;;;1.23;;
59189;SDS011;50749;51.636;4.948;2023-02-26T01:45:03;2.10;;;1.13;;
59189;SDS011;50749;51.636;4.948;2023-02-26T01:50:23;2.10;;;0.80;;
59189;SDS011;50749;51.636;4.948;2023-02-26T01:53:14;1.20;;;0.85;;
59189;SDS011;50749;51.636;4.948;2023-02-26T01:55:43;2.53;;;1.15;;
59189;SDS011;50749;51.636;4.948;2023-02-26T01:58:12;1.65;;;0.82;;
59189;SDS011;50749;51.636;4.948;2023-02-26T02:00:38;2.60;;;0.90;;
59189;SDS011;50749;51.636;4.948;2023-02-26T02:03:04;4.07;;;0.90;;
59189;SDS011;50749;51.636;4.948;2023-02-26T02:06:14;1.52;;;0.80;;
59189;SDS011;50749;51.636;4.948;2023-02-26T02:08:22;2.63;;;0.73;;
59189;SDS011;50749;51.636;4.948;2023-02-26T02:10:48;2.80;;;1.00;;
59189;SDS011;50749;51.636;4.948;2023-02-26T02:16:19;2.88;;;1.02;;
59189;SDS011;50749;51.636;4.948;2023-02-26T02:21:49;1.00;;;0.60;;
59189;SDS011;50749;51.636;4.948;2023-02-26T02:33:00;1.30;;;0.98;;
59189;SDS011;50749;51.636;4.948;2023-02-26T02:38:13;1.48;;;0.68;;
59189;SDS011;50749;51.636;4.948;2023-02-26T02:40:42;1.15;;;0.57;;
59189;SDS011;50749;51.636;4.948;2023-02-26T02:43:15;1.90;;;0.88;;
59189;SDS011;50749;51.636;4.948;2023-02-26T02:51:06;0.70;;;0.45;;
59189;SDS011;50749;51.636;4.948;2023-02-26T02:53:35;1.70;;;0.80;;
59189;SDS011;50749;51.636;4.948;2023-02-26T02:56:24;2.97;;;0.82;;
59189;SDS011;50749;51.636;4.948;2023-02-26T02:59:05;1.83;;;0.82;;
59189;SDS011;50749;51.636;4.948;2023-02-26T03:04:45;3.78;;;0.90;;
59189;SDS011;50749;51.636;4.948;2023-02-26T03:07:12;1.10;;;0.50;;
59189;SDS011;50749;51.636;4.948;2023-02-26T03:09:38;5.68;;;1.10;;
59189;SDS011;50749;51.636;4.948;2023-02-26T03:12:04;3.28;;;1.35;;
59189;SDS011;50749;51.636;4.948;2023-02-26T03:14:30;1.35;;;0.50;;
59189;SDS011;50749;51.636;4.948;2023-02-26T03:27:44;1.55;;;0.75;;
59189;SDS011;50749;51.636;4.948;2023-02-26T03:35:48;1.60;;;0.82;;
59189;SDS011;50749;51.636;4.948;2023-02-26T03:38:30;1.15;;;0.50;;
59189;SDS011;50749;51.636;4.948;2023-02-26T03:41:02;1.27;;;0.63;;
59189;SDS011;50749;51.636;4.948;2023-02-26T03:43:37;1.35;;;0.60;;
59189;SDS011;50749;51.636;4.948;2023-02-26T03:46:10;0.90;;;0.40;;
59189;SDS011;50749;51.636;4.948;2023-02-26T03:48:40;1.02;;;0.60;;
59189;SDS011;50749;51.636;4.948;2023-02-26T03:51:08;1.63;;;0.70;;
59189;SDS011;50749;51.636;4.948;2023-02-26T03:53:44;1.42;;;0.60;;
59189;SDS011;50749;51.636;4.948;2023-02-26T03:56:27;1.30;;;0.52;;
59189;SDS011;50749;51.636;4.948;2023-02-26T03:58:57;1.48;;;0.60;;
59189;SDS011;50749;51.636;4.948;2023-02-26T04:01:28;2.80;;;0.65;;
59189;SDS011;50749;51.636;4.948;2023-02-26T04:04:08;1.48;;;0.70;;
59189;SDS011;50749;51.636;4.948;2023-02-26T04:06:38;1.75;;;0.63;;
59189;SDS011;50749;51.636;4.948;2023-02-26T04:09:04;1.88;;;0.55;;
59189;SDS011;50749;51.636;4.948;2023-02-26T04:11:31;1.58;;;0.75;;
59189;SDS011;50749;51.636;4.948;2023-02-26T04:13:58;1.42;;;0.68;;
59189;SDS011;50749;51.636;4.948;2023-02-26T04:16:23;1.90;;;0.60;;
59189;SDS011;50749;51.636;4.948;2023-02-26T04:18:49;1.10;;;0.50;;
59189;SDS011;50749;51.636;4.948;2023-02-26T04:21:16;2.17;;;0.50;;
59189;SDS011;50749;51.636;4.948;2023-02-26T04:23:44;1.60;;;0.82;;
59189;SDS011;50749;51.636;4.948;2023-02-26T04:26:10;2.03;;;1.00;;
59189;SDS011;50749;51.636;4.948;2023-02-26T04:28:38;2.28;;;0.55;;
59189;SDS011;50749;51.636;4.948;2023-02-26T04:31:05;2.20;;;0.57;;
59189;SDS011;50749;51.636;4.948;2023-02-26T04:33:31;1.25;;;0.60;;
59189;SDS011;50749;51.636;4.948;2023-02-26T04:35:58;1.25;;;0.40;;
59189;SDS011;50749;51.636;4.948;2023-02-26T04:38:25;1.60;;;0.60;;
59189;SDS011;50749;51.636;4.948;2023-02-26T04:40:50;0.70;;;0.40;;
59189;SDS011;50749;51.636;4.948;2023-02-26T04:43:17;1.05;;;0.50;;
59189;SDS011;50749;51.636;4.948;2023-02-26T04:45:46;0.82;;;0.47;;
59189;SDS011;50749;51.636;4.948;2023-02-26T04:48:13;1.70;;;0.70;;
59189;SDS011;50749;51.636;4.948;2023-02-26T04:50:40;3.95;;;0.63;;
59189;SDS011;50749;51.636;4.948;2023-02-26T04:53:06;0.63;;;0.30;;
59189;SDS011;50749;51.636;4.948;2023-02-26T04:55:33;3.55;;;0.68;;
59189;SDS011;50749;51.636;4.948;2023-02-26T04:57:59;0.93;;;0.50;;
59189;SDS011;50749;51.636;4.948;2023-02-26T05:00:25;1.60;;;0.55;;
59189;SDS011;50749;51.636;4.948;2023-02-26T05:02:51;1.33;;;0.70;;
59189;SDS011;50749;51.636;4.948;2023-02-26T05:05:17;0.95;;;0.30;;
59189;SDS011;50749;51.636;4.948;2023-02-26T05:07:43;3.00;;;0.82;;
59189;SDS011;50749;51.636;4.948;2023-02-26T05:10:09;2.95;;;1.05;;
59189;SDS011;50749;51.636;4.948;2023-02-26T05:12:35;1.48;;;0.30;;
59189;SDS011;50749;51.636;4.948;2023-02-26T05:15:01;1.27;;;0.50;;
59189;SDS011;50749;51.636;4.948;2023-02-26T05:17:28;2.08;;;0.60;;
59189;SDS011;50749;51.636;4.948;2023-02-26T05:19:54;2.03;;;0.60;;
59189;SDS011;50749;51.636;4.948;2023-02-26T05:22:20;2.40;;;0.50;;
59189;SDS011;50749;51.636;4.948;2023-02-26T05:24:45;0.98;;;0.40;;
59189;SDS011;50749;51.636;4.948;2023-02-26T05:27:11;1.65;;;0.50;;
59189;SDS011;50749;51.636;4.948;2023-02-26T05:29:37;0.70;;;0.38;;
59189;SDS011;50749;51.636;4.948;2023-02-26T05:32:05;1.33;;;0.90;;
59189;SDS011;50749;51.636;4.948;2023-02-26T05:34:31;0.98;;;0.50;;
59189;SDS011;50749;51.636;4.948;2023-02-26T05:36:57;2.92;;;0.70;;
59189;SDS011;50749;51.636;4.948;2023-02-26T05:39:22;2.33;;;0.60;;
59189;SDS011;50749;51.636;4.948;2023-02-26T05:41:49;2.33;;;0.80;;
59189;SDS011;50749;51.636;4.948;2023-02-26T05:44:16;0.85;;;0.40;;
59189;SDS011;50749;51.636;4.948;2023-02-26T05:46:42;2.08;;;0.88;;
59189;SDS011;50749;51.636;4.948;2023-02-26T05:49:08;1.70;;;0.57;;
59189;SDS011;50749;51.636;4.948;2023-02-26T05:51:34;0.73;;;0.40;;
59189;SDS011;50749;51.636;4.948;2023-02-26T05:53:59;1.77;;;0.60;;
59189;SDS011;50749;51.636;4.948;2023-02-26T05:56:25;1.90;;;0.63;;
59189;SDS011;50749;51.636;4.948;2023-02-26T05:58:51;1.17;;;0.50;;
59189;SDS011;50749;51.636;4.948;2023-02-26T06:01:17;0.55;;;0.40;;
59189;SDS011;50749;51.636;4.948;2023-02-26T06:03:43;1.58;;;0.50;;
59189;SDS011;50749;51.636;4.948;2023-02-26T06:06:09;1.20;;;0.50;;
59189;SDS011;50749;51.636;4.948;2023-02-26T06:08:36;1.55;;;0.52;;
59189;SDS011;50749;51.636;4.948;2023-02-26T06:11:03;1.27;;;0.40;;
59189;SDS011;50749;51.636;4.948;2023-02-26T06:13:29;0.63;;;0.30;;
59189;SDS011;50749;51.636;4.948;2023-02-26T06:15:55;1.23;;;0.40;;
59189;SDS011;50749;51.636;4.948;2023-02-26T06:18:21;1.95;;;0.47;;
59189;SDS011;50749;51.636;4.948;2023-02-26T06:20:47;0.90;;;0.40;;
59189;SDS011;50749;51.636;4.948;2023-02-26T06:23:13;0.60;;;0.30;;
59189;SDS011;50749;51.636;4.948;2023-02-26T06:25:42;1.58;;;0.45;;
59189;SDS011;50749;51.636;4.948;2023-02-26T06:28:08;1.08;;;0.47;;
59189;SDS011;50749;51.636;4.948;2023-02-26T06:30:34;1.95;;;0.63;;
59189;SDS011;50749;51.636;4.948;2023-02-26T06:33:00;1.00;;;0.65;;
59189;SDS011;50749;51.636;4.948;2023-02-26T06:35:26;1.00;;;0.32;;
59189;SDS011;50749;51.636;4.948;2023-02-26T06:37:54;2.15;;;0.47;;
59189;SDS011;50749;51.636;4.948;2023-02-26T06:40:21;1.00;;;0.30;;
59189;SDS011;50749;51.636;4.948;2023-02-26T06:42:46;1.90;;;0.40;;
59189;SDS011;50749;51.636;4.948;2023-02-26T06:45:12;0.70;;;0.30;;
59189;SDS011;50749;51.636;4.948;2023-02-26T06:47:38;1.10;;;0.43;;
59189;SDS011;50749;51.636;4.948;2023-02-26T06:50:05;1.48;;;0.40;;
59189;SDS011;50749;51.636;4.948;2023-02-26T06:52:31;0.98;;;0.32;;
59189;SDS011;50749;51.636;4.948;2023-02-26T06:54:57;1.08;;;0.40;;
59189;SDS011;50749;51.636;4.948;2023-02-26T06:57:22;0.40;;;0.22;;
59189;SDS011;50749;51.636;4.948;2023-02-26T06:59:49;0.65;;;0.30;;
59189;SDS011;50749;51.636;4.948;2023-02-26T07:02:16;1.60;;;0.40;;
59189;SDS011;50749;51.636;4.948;2023-02-26T07:04:45;0.73;;;0.38;;
59189;SDS011;50749;51.636;4.948;2023-02-26T07:07:10;0.85;;;0.40;;
59189;SDS011;50749;51.636;4.948;2023-02-26T07:09:37;0.82;;;0.40;;
59189;SDS011;50749;51.636;4.948;2023-02-26T07:12:03;1.88;;;0.50;;
59189;SDS011;50749;51.636;4.948;2023-02-26T07:14:32;1.55;;;0.43;;
59189;SDS011;50749;51.636;4.948;2023-02-26T07:16:58;0.68;;;0.40;;
59189;SDS011;50749;51.636;4.948;2023-02-26T07:19:25;0.35;;;0.20;;
59189;SDS011;50749;51.636;4.948;2023-02-26T07:21:51;1.27;;;1.00;;
59189;SDS011;50749;51.636;4.948;2023-02-26T07:24:17;0.68;;;0.30;;
59189;SDS011;50749;51.636;4.948;2023-02-26T07:26:43;1.25;;;0.30;;
59189;SDS011;50749;51.636;4.948;2023-02-26T07:29:09;1.50;;;0.50;;
59189;SDS011;50749;51.636;4.948;2023-02-26T07:31:34;1.88;;;0.50;;
59189;SDS011;50749;51.636;4.948;2023-02-26T07:34:01;0.52;;;0.20;;
59189;SDS011;50749;51.636;4.948;2023-02-26T07:36:27;0.30;;;0.30;;
59189;SDS011;50749;51.636;4.948;2023-02-26T07:38:53;1.67;;;0.22;;
59189;SDS011;50749;51.636;4.948;2023-02-26T07:41:19;1.27;;;0.47;;
59189;SDS011;50749;51.636;4.948;2023-02-26T07:43:45;0.60;;;0.30;;
59189;SDS011;50749;51.636;4.948;2023-02-26T07:46:11;1.88;;;0.55;;
59189;SDS011;50749;51.636;4.948;2023-02-26T07:48:37;0.88;;;0.30;;
59189;SDS011;50749;51.636;4.948;2023-02-26T07:51:03;1.60;;;0.52;;
59189;SDS011;50749;51.636;4.948;2023-02-26T07:53:31;1.77;;;0.40;;
59189;SDS011;50749;51.636;4.948;2023-02-26T07:55:57;2.55;;;0.35;;
59189;SDS011;50749;51.636;4.948;2023-02-26T07:58:23;2.05;;;0.45;;
59189;SDS011;50749;51.636;4.948;2023-02-26T08:00:49;0.70;;;0.40;;
59189;SDS011;50749;51.636;4.948;2023-02-26T08:03:17;2.38;;;0.63;;
59189;SDS011;50749;51.636;4.948;2023-02-26T08:05:43;0.90;;;0.30;;
59189;SDS011;50749;51.636;4.948;2023-02-26T08:08:10;0.57;;;0.40;;
59189;SDS011;50749;51.636;4.948;2023-02-26T08:10:36;0.55;;;0.40;;
59189;SDS011;50749;51.636;4.948;2023-02-26T08:13:03;0.20;;;0.20;;
59189;SDS011;50749;51.636;4.948;2023-02-26T08:15:29;1.35;;;0.43;;
59189;SDS011;50749;51.636;4.948;2023-02-26T08:17:55;0.68;;;0.35;;
59189;SDS011;50749;51.636;4.948;2023-02-26T08:20:21;1.50;;;0.50;;
59189;SDS011;50749;51.636;4.948;2023-02-26T08:22:49;1.45;;;0.40;;
59189;SDS011;50749;51.636;4.948;2023-02-26T08:25:15;0.82;;;0.20;;
59189;SDS011;50749;51.636;4.948;2023-02-26T08:27:41;1.25;;;0.45;;
59189;SDS011;50749;51.636;4.948;2023-02-26T08:30:07;1.58;;;0.40;;
59189;SDS011;50749;51.636;4.948;2023-02-26T08:32:34;0.90;;;0.43;;
59189;SDS011;50749;51.636;4.948;2023-02-26T08:35:00;1.67;;;0.30;;
59189;SDS011;50749;51.636;4.948;2023-02-26T08:37:26;0.40;;;0.30;;
59189;SDS011;50749;51.636;4.948;2023-02-26T08:39:52;1.33;;;0.50;;
59189;SDS011;50749;51.636;4.948;2023-02-26T08:42:18;1.67;;;0.20;;
59189;SDS011;50749;51.636;4.948;2023-02-26T08:44:47;0.77;;;0.40;;
59189;SDS011;50749;51.636;4.948;2023-02-26T08:47:14;1.10;;;0.55;;
59189;SDS011;50749;51.636;4.948;2023-02-26T08:49:39;1.35;;;0.47;;
59189;SDS011;50749;51.636;4.948;2023-02-26T08:52:05;1.38;;;0.28;;
59189;SDS011;50749;51.636;4.948;2023-02-26T08:54:31;1.08;;;0.30;;
59189;SDS011;50749;51.636;4.948;2023-02-26T08:56:57;1.05;;;0.30;;
59189;SDS011;50749;51.636;4.948;2023-02-26T08:59:23;0.38;;;0.20;;
59189;SDS011;50749;51.636;4.948;2023-02-26T09:01:50;1.30;;;0.35;;
59189;SDS011;50749;51.636;4.948;2023-02-26T09:04:15;0.52;;;0.30;;
59189;SDS011;50749;51.636;4.948;2023-02-26T09:06:42;1.23;;;0.35;;
59189;SDS011;50749;51.636;4.948;2023-02-26T09:09:08;1.10;;;0.40;;
59189;SDS011;50749;51.636;4.948;2023-02-26T09:11:34;0.75;;;0.22;;
59189;SDS011;50749;51.636;4.948;2023-02-26T09:14:01;0.80;;;0.28;;
59189;SDS011;50749;51.636;4.948;2023-02-26T09:16:28;0.95;;;0.40;;
59189;SDS011;50749;51.636;4.948;2023-02-26T09:18:55;0.45;;;0.30;;
59189;SDS011;50749;51.636;4.948;2023-02-26T09:21:21;1.65;;;0.40;;
59189;SDS011;50749;51.636;4.948;2023-02-26T09:23:48;0.40;;;0.20;;
59189;SDS011;50749;51.636;4.948;2023-02-26T09:26:14;2.03;;;0.75;;
59189;SDS011;50749;51.636;4.948;2023-02-26T09:28:40;1.33;;;0.40;;
59189;SDS011;50749;51.636;4.948;2023-02-26T09:31:06;0.68;;;0.40;;
59189;SDS011;50749;51.636;4.948;2023-02-26T09:33:32;0.63;;;0.20;;
59189;SDS011;50749;51.636;4.948;2023-02-26T09:35:58;1.17;;;0.30;;
59189;SDS011;50749;51.636;4.948;2023-02-26T09:38:24;0.43;;;0.25;;
59189;SDS011;50749;51.636;4.948;2023-02-26T09:41:08;2.00;;;0.40;;
59189;SDS011;50749;51.636;4.948;2023-02-26T09:47:20;0.30;;;0.30;;
59189;SDS011;50749;51.636;4.948;2023-02-26T09:52:23;1.08;;;0.40;;
59189;SDS011;50749;51.636;4.948;2023-02-26T09:57:33;1.05;;;0.40;;
59189;SDS011;50749;51.636;4.948;2023-02-26T10:00:02;1.25;;;0.40;;
59189;SDS011;50749;51.636;4.948;2023-02-26T10:05:33;5.35;;;0.38;;
59189;SDS011;50749;51.636;4.948;2023-02-26T10:08:25;0.80;;;0.45;;
59189;SDS011;50749;51.636;4.948;2023-02-26T10:15:53;1.40;;;0.38;;
59189;SDS011;50749;51.636;4.948;2023-02-26T10:18:26;3.72;;;0.40;;
59189;SDS011;50749;51.636;4.948;2023-02-26T10:21:02;1.60;;;0.50;;
59189;SDS011;50749;51.636;4.948;2023-02-26T10:26:12;0.65;;;0.20;;
59189;SDS011;50749;51.636;4.948;2023-02-26T10:35:14;3.92;;;0.45;;
59189;SDS011;50749;51.636;4.948;2023-02-26T10:37:24;1.27;;;0.30;;
59189;SDS011;50749;51.636;4.948;2023-02-26T10:40:12;1.20;;;0.25;;
59189;SDS011;50749;51.636;4.948;2023-02-26T10:45:21;0.98;;;0.43;;
59189;SDS011;50749;51.636;4.948;2023-02-26T10:50:45;2.33;;;0.30;;
59189;SDS011;50749;51.636;4.948;2023-02-26T10:53:14;2.88;;;0.55;;
59189;SDS011;50749;51.636;4.948;2023-02-26T10:58:30;1.67;;;0.68;;
59189;SDS011;50749;51.636;4.948;2023-02-26T11:00:56;5.10;;;0.75;;
59189;SDS011;50749;51.636;4.948;2023-02-26T11:06:26;2.42;;;0.45;;
59189;SDS011;50749;51.636;4.948;2023-02-26T11:08:56;1.55;;;0.50;;
59189;SDS011;50749;51.636;4.948;2023-02-26T11:11:45;1.60;;;0.32;;
59189;SDS011;50749;51.636;4.948;2023-02-26T11:14:17;2.35;;;0.30;;
59189;SDS011;50749;51.636;4.948;2023-02-26T11:16:46;1.83;;;0.40;;
59189;SDS011;50749;51.636;4.948;2023-02-26T11:19:15;2.40;;;0.57;;
59189;SDS011;50749;51.636;4.948;2023-02-26T11:21:43;3.42;;;0.38;;
59189;SDS011;50749;51.636;4.948;2023-02-26T11:24:12;2.15;;;0.57;;
59189;SDS011;50749;51.636;4.948;2023-02-26T11:26:46;2.47;;;0.43;;
59189;SDS011;50749;51.636;4.948;2023-02-26T11:29:18;2.40;;;0.50;;
59189;SDS011;50749;51.636;4.948;2023-02-26T11:31:52;1.55;;;0.70;;
59189;SDS011;50749;51.636;4.948;2023-02-26T11:34:23;2.00;;;0.45;;
59189;SDS011;50749;51.636;4.948;2023-02-26T11:36:51;7.97;;;0.70;;
59189;SDS011;50749;51.636;4.948;2023-02-26T11:39:24;3.03;;;0.50;;
59189;SDS011;50749;51.636;4.948;2023-02-26T11:41:57;4.05;;;0.45;;
59189;SDS011;50749;51.636;4.948;2023-02-26T11:47:14;4.63;;;0.73;;
59189;SDS011;50749;51.636;4.948;2023-02-26T11:49:43;4.45;;;0.70;;
59189;SDS011;50749;51.636;4.948;2023-02-26T11:52:28;4.30;;;1.05;;
59189;SDS011;50749;51.636;4.948;2023-02-26T11:55:01;2.25;;;0.77;;
59189;SDS011;50749;51.636;4.948;2023-02-26T11:57:30;1.35;;;0.80;;
59189;SDS011;50749;51.636;4.948;2023-02-26T11:59:58;1.77;;;1.05;;
59189;SDS011;50749;51.636;4.948;2023-02-26T12:02:26;2.70;;;1.00;;
59189;SDS011;50749;51.636;4.948;2023-02-26T12:05:00;1.85;;;1.00;;
59189;SDS011;50749;51.636;4.948;2023-02-26T12:07:28;1.00;;;0.55;;
59189;SDS011;50749;51.636;4.948;2023-02-26T12:09:55;1.13;;;0.60;;
59189;SDS011;50749;51.636;4.948;2023-02-26T12:15:20;2.53;;;0.88;;
59189;SDS011;50749;51.636;4.948;2023-02-26T12:18:03;2.70;;;1.30;;
59189;SDS011;50749;51.636;4.948;2023-02-26T12:20:41;3.05;;;1.10;;
59189;SDS011;50749;51.636;4.948;2023-02-26T12:51:33;1.10;;;0.70;;
59189;SDS011;50749;51.636;4.948;2023-02-26T12:55:22;3.20;;;0.40;;
59189;SDS011;50749;51.636;4.948;2023-02-26T13:19:47;2.03;;;0.50;;
59189;SDS011;50749;51.636;4.948;2023-02-26T13:22:37;1.92;;;0.55;;
59189;SDS011;50749;51.636;4.948;2023-02-26T13:27:42;3.20;;;0.63;;
59189;SDS011;50749;51.636;4.948;2023-02-26T13:32:53;1.30;;;0.60;;
59189;SDS011;50749;51.636;4.948;2023-02-26T13:35:38;5.88;;;0.70;;
59189;SDS011;50749;51.636;4.948;2023-02-26T13:38:15;1.45;;;0.70;;
59189;SDS011;50749;51.636;4.948;2023-02-26T13:44:34;0.98;;;0.40;;
59189;SDS011;50749;51.636;4.948;2023-02-26T13:49:49;2.22;;;0.60;;
59189;SDS011;50749;51.636;4.948;2023-02-26T13:52:25;3.35;;;0.43;;
59189;SDS011;50749;51.636;4.948;2023-02-26T13:54:53;1.50;;;0.70;;
59189;SDS011;50749;51.636;4.948;2023-02-26T14:00:47;1.42;;;0.50;;
59189;SDS011;50749;51.636;4.948;2023-02-26T14:02:52;3.20;;;0.63;;
59189;SDS011;50749;51.636;4.948;2023-02-26T14:10:28;7.32;;;0.52;;
59189;SDS011;50749;51.636;4.948;2023-02-26T14:13:03;2.30;;;0.50;;
59189;SDS011;50749;51.636;4.948;2023-02-26T14:16:27;1.30;;;0.35;;
59189;SDS011;50749;51.636;4.948;2023-02-26T14:24:01;0.82;;;0.40;;
59189;SDS011;50749;51.636;4.948;2023-02-26T14:26:32;2.03;;;0.60;;
59189;SDS011;50749;51.636;4.948;2023-02-26T14:31:45;3.17;;;0.68;;
59189;SDS011;50749;51.636;4.948;2023-02-26T14:34:14;2.13;;;0.90;;
59189;SDS011;50749;51.636;4.948;2023-02-26T14:41:49;3.88;;;0.80;;
59189;SDS011;50749;51.636;4.948;2023-02-26T14:44:22;2.65;;;0.80;;
59189;SDS011;50749;51.636;4.948;2023-02-26T14:46:54;4.28;;;0.88;;
59189;SDS011;50749;51.636;4.948;2023-02-26T14:49:34;4.28;;;1.33;;
59189;SDS011;50749;51.636;4.948;2023-02-26T15:00:37;3.78;;;1.00;;
59189;SDS011;50749;51.636;4.948;2023-02-26T15:08:50;5.13;;;0.93;;
59189;SDS011;50749;51.636;4.948;2023-02-26T15:19:55;1.92;;;0.60;;
59189;SDS011;50749;51.636;4.948;2023-02-26T15:25:31;1.88;;;0.55;;
59189;SDS011;50749;51.636;4.948;2023-02-26T15:28:03;0.90;;;0.55;;
59189;SDS011;50749;51.636;4.948;2023-02-26T15:30:31;0.90;;;0.50;;
59189;SDS011;50749;51.636;4.948;2023-02-26T15:32:59;1.92;;;0.70;;
59189;SDS011;50749;51.636;4.948;2023-02-26T15:35:28;1.20;;;0.50;;
59189;SDS011;50749;51.636;4.948;2023-02-26T15:37:57;1.55;;;0.50;;
59189;SDS011;50749;51.636;4.948;2023-02-26T15:40:35;0.77;;;0.40;;
59189;SDS011;50749;51.636;4.948;2023-02-26T15:43:05;2.10;;;0.50;;
59189;SDS011;50749;51.636;4.948;2023-02-26T15:45:42;0.55;;;0.22;;
59189;SDS011;50749;51.636;4.948;2023-02-26T15:48:12;1.13;;;0.50;;
59189;SDS011;50749;51.636;4.948;2023-02-26T15:50:44;1.48;;;0.32;;
59189;SDS011;50749;51.636;4.948;2023-02-26T15:53:16;1.98;;;0.68;;
59189;SDS011;50749;51.636;4.948;2023-02-26T15:55:49;1.77;;;0.88;;
59189;SDS011;50749;51.636;4.948;2023-02-26T15:58:32;1.35;;;0.40;;
59189;SDS011;50749;51.636;4.948;2023-02-26T16:01:12;0.70;;;0.40;;
59189;SDS011;50749;51.636;4.948;2023-02-26T16:03:40;2.05;;;1.30;;
59189;SDS011;50749;51.636;4.948;2023-02-26T16:06:08;2.25;;;0.73;;
59189;SDS011;50749;51.636;4.948;2023-02-26T16:08:38;3.08;;;0.50;;
59189;SDS011;50749;51.636;4.948;2023-02-26T16:11:03;1.92;;;0.60;;
59189;SDS011;50749;51.636;4.948;2023-02-26T16:13:32;2.60;;;0.38;;
59189;SDS011;50749;51.636;4.948;2023-02-26T16:16:21;0.80;;;0.57;;
59189;SDS011;50749;51.636;4.948;2023-02-26T16:18:50;3.65;;;0.47;;
59189;SDS011;50749;51.636;4.948;2023-02-26T16:21:21;1.55;;;0.45;;
59189;SDS011;50749;51.636;4.948;2023-02-26T16:23:53;1.85;;;0.40;;
59189;SDS011;50749;51.636;4.948;2023-02-26T16:26:23;1.40;;;0.40;;
59189;SDS011;50749;51.636;4.948;2023-02-26T16:31:25;0.43;;;0.25;;
59189;SDS011;50749;51.636;4.948;2023-02-26T16:33:56;1.00;;;0.35;;
59189;SDS011;50749;51.636;4.948;2023-02-26T16:36:26;1.05;;;0.40;;
59189;SDS011;50749;51.636;4.948;2023-02-26T16:38:57;0.85;;;0.40;;
59189;SDS011;50749;51.636;4.948;2023-02-26T16:41:27;2.30;;;0.40;;
59189;SDS011;50749;51.636;4.948;2023-02-26T16:43:56;0.80;;;0.30;;
59189;SDS011;50749;51.636;4.948;2023-02-26T16:49:23;0.45;;;0.30;;
59189;SDS011;50749;51.636;4.948;2023-02-26T16:51:51;2.33;;;0.40;;
59189;SDS011;50749;51.636;4.948;2023-02-26T16:54:19;2.17;;;0.30;;
59189;SDS011;50749;51.636;4.948;2023-02-26T16:56:57;0.85;;;0.30;;
59189;SDS011;50749;51.636;4.948;2023-02-26T16:59:38;1.00;;;0.50;;
59189;SDS011;50749;51.636;4.948;2023-02-26T17:02:20;0.60;;;0.28;;
59189;SDS011;50749;51.636;4.948;2023-02-26T17:04:53;1.08;;;0.40;;
59189;SDS011;50749;51.636;4.948;2023-02-26T17:07:29;3.45;;;0.40;;
59189;SDS011;50749;51.636;4.948;2023-02-26T17:09:58;1.58;;;0.50;;
59189;SDS011;50749;51.636;4.948;2023-02-26T17:15:13;0.88;;;0.30;;
59189;SDS011;50749;51.636;4.948;2023-02-26T17:17:42;0.77;;;0.20;;
59189;SDS011;50749;51.636;4.948;2023-02-26T17:20:08;2.05;;;0.60;;
59189;SDS011;50749;51.636;4.948;2023-02-26T17:22:35;3.10;;;0.57;;
59189;SDS011;50749;51.636;4.948;2023-02-26T17:25:01;0.45;;;0.20;;
59189;SDS011;50749;51.636;4.948;2023-02-26T17:27:29;5.63;;;0.90;;
59189;SDS011;50749;51.636;4.948;2023-02-26T17:29:57;3.95;;;0.73;;
59189;SDS011;50749;51.636;4.948;2023-02-26T17:32:25;6.50;;;0.95;;
59189;SDS011;50749;51.636;4.948;2023-02-26T17:34:52;4.88;;;1.38;;
59189;SDS011;50749;51.636;4.948;2023-02-26T17:37:19;2.65;;;0.80;;
59189;SDS011;50749;51.636;4.948;2023-02-26T17:39:45;1.60;;;0.90;;
59189;SDS011;50749;51.636;4.948;2023-02-26T17:42:12;4.63;;;1.20;;
59189;SDS011;50749;51.636;4.948;2023-02-26T17:44:40;7.10;;;1.02;;
59189;SDS011;50749;51.636;4.948;2023-02-26T17:47:24;4.45;;;1.00;;
59189;SDS011;50749;51.636;4.948;2023-02-26T17:49:51;5.75;;;1.50;;
59189;SDS011;50749;51.636;4.948;2023-02-26T17:52:18;6.22;;;1.88;;
59189;SDS011;50749;51.636;4.948;2023-02-26T17:54:44;6.47;;;2.30;;
59189;SDS011;50749;51.636;4.948;2023-02-26T17:57:18;8.65;;;2.50;;
59189;SDS011;50749;51.636;4.948;2023-02-26T17:59:45;15.57;;;2.30;;
59189;SDS011;50749;51.636;4.948;2023-02-26T18:02:14;9.05;;;1.90;;
59189;SDS011;50749;51.636;4.948;2023-02-26T18:04:46;6.40;;;1.73;;
59189;SDS011;50749;51.636;4.948;2023-02-26T18:07:13;8.32;;;1.60;;
59189;SDS011;50749;51.636;4.948;2023-02-26T18:09:41;6.55;;;1.92;;
59189;SDS011;50749;51.636;4.948;2023-02-26T18:12:18;8.88;;;1.83;;
59189;SDS011;50749;51.636;4.948;2023-02-26T18:14:46;7.30;;;1.60;;
59189;SDS011;50749;51.636;4.948;2023-02-26T18:17:17;11.15;;;1.65;;
59189;SDS011;50749;51.636;4.948;2023-02-26T18:19:47;4.55;;;1.77;;
59189;SDS011;50749;51.636;4.948;2023-02-26T18:22:14;4.15;;;1.27;;
59189;SDS011;50749;51.636;4.948;2023-02-26T18:24:41;6.05;;;1.13;;
59189;SDS011;50749;51.636;4.948;2023-02-26T18:27:11;6.80;;;1.88;;
59189;SDS011;50749;51.636;4.948;2023-02-26T18:29:42;9.43;;;1.70;;
59189;SDS011;50749;51.636;4.948;2023-02-26T18:32:11;4.68;;;1.27;;
59189;SDS011;50749;51.636;4.948;2023-02-26T18:34:39;3.83;;;1.42;;
59189;SDS011;50749;51.636;4.948;2023-02-26T18:37:05;7.55;;;1.95;;
59189;SDS011;50749;51.636;4.948;2023-02-26T18:39:31;6.70;;;2.05;;